sensor_id;sensor_type;location;lat;lon;timestamp;P1;durP1;ratioP1;P2;durP2;ratioP2
23745;SDS011;12053;48.878;9.632;2024-02-28T00:01:18;46.33;;;25.50;;
23745;SDS011;12053;48.878;9.632;2024-02-28T00:03:45;41.92;;;24.58;;
23745;SDS011;12053;48.878;9.632;2024-02-28T00:06:15;42.15;;;25.45;;
23745;SDS011;12053;48.878;9.632;2024-02-28T00:08:43;40.58;;;24.58;;
23745;SDS011;12053;48.878;9.632;2024-02-28T00:11:10;40.65;;;25.38;;
23745;SDS011;12053;48.878;9.632;2024-02-28T00:13:38;46.38;;;25.65;;
23745;SDS011;12053;48.878;9.632;2024-02-28T00:16:05;43.95;;;26.48;;
23745;SDS011;12053;48.878;9.632;2024-02-28T00:18:32;43.40;;;25.52;;
23745;SDS011;12053;48.878;9.632;2024-02-28T00:21:00;45.85;;;28.05;;
23745;SDS011;12053;48.878;9.632;2024-02-28T00:23:27;45.33;;;25.38;;
23745;SDS011;12053;48.878;9.632;2024-02-28T00:25:55;43.35;;;26.13;;
23745;SDS011;12053;48.878;9.632;2024-02-28T00:28:22;47.88;;;26.83;;
23745;SDS011;12053;48.878;9.632;2024-02-28T00:30:49;47.08;;;26.38;;
23745;SDS011;12053;48.878;9.632;2024-02-28T00:33:16;45.03;;;26.08;;
23745;SDS011;12053;48.878;9.632;2024-02-28T00:35:44;46.97;;;27.58;;
23745;SDS011;12053;48.878;9.632;2024-02-28T00:38:11;52.80;;;28.85;;
23745;SDS011;12053;48.878;9.632;2024-02-28T00:40:38;48.45;;;28.52;;
23745;SDS011;12053;48.878;9.632;2024-02-28T00:43:06;52.28;;;28.52;;
23745;SDS011;12053;48.878;9.632;2024-02-28T00:45:33;49.63;;;27.73;;
23745;SDS011;12053;48.878;9.632;2024-02-28T00:48:00;48.90;;;27.67;;
23745;SDS011;12053;48.878;9.632;2024-02-28T00:50:27;50.00;;;27.90;;
23745;SDS011;12053;48.878;9.632;2024-02-28T00:52:55;50.47;;;27.42;;
23745;SDS011;12053;48.878;9.632;2024-02-28T00:55:22;51.22;;;28.00;;
23745;SDS011;12053;48.878;9.632;2024-02-28T00:57:49;54.22;;;28.08;;
23745;SDS011;12053;48.878;9.632;2024-02-28T01:00:16;49.92;;;27.70;;
23745;SDS011;12053;48.878;9.632;2024-02-28T01:02:44;46.58;;;27.77;;
23745;SDS011;12053;48.878;9.632;2024-02-28T01:05:11;47.22;;;26.55;;
23745;SDS011;12053;48.878;9.632;2024-02-28T01:07:38;46.55;;;27.27;;
23745;SDS011;12053;48.878;9.632;2024-02-28T01:10:06;46.25;;;26.27;;
23745;SDS011;12053;48.878;9.632;2024-02-28T01:12:33;46.58;;;27.35;;
23745;SDS011;12053;48.878;9.632;2024-02-28T01:15:01;44.53;;;26.58;;
23745;SDS011;12053;48.878;9.632;2024-02-28T01:17:28;49.65;;;28.05;;
23745;SDS011;12053;48.878;9.632;2024-02-28T01:19:55;46.05;;;26.80;;
23745;SDS011;12053;48.878;9.632;2024-02-28T01:22:22;46.72;;;27.73;;
23745;SDS011;12053;48.878;9.632;2024-02-28T01:24:50;47.83;;;27.73;;
23745;SDS011;12053;48.878;9.632;2024-02-28T01:27:17;45.25;;;26.15;;
23745;SDS011;12053;48.878;9.632;2024-02-28T01:29:44;50.53;;;27.83;;
23745;SDS011;12053;48.878;9.632;2024-02-28T01:32:11;47.45;;;26.80;;
23745;SDS011;12053;48.878;9.632;2024-02-28T01:34:39;42.15;;;25.60;;
23745;SDS011;12053;48.878;9.632;2024-02-28T01:37:06;48.15;;;26.15;;
23745;SDS011;12053;48.878;9.632;2024-02-28T01:39:33;49.63;;;26.80;;
23745;SDS011;12053;48.878;9.632;2024-02-28T01:42:00;42.78;;;25.60;;
23745;SDS011;12053;48.878;9.632;2024-02-28T01:44:28;45.78;;;26.83;;
23745;SDS011;12053;48.878;9.632;2024-02-28T01:46:55;46.22;;;26.08;;
23745;SDS011;12053;48.878;9.632;2024-02-28T01:49:24;47.35;;;26.50;;
23745;SDS011;12053;48.878;9.632;2024-02-28T01:51:52;50.42;;;27.63;;
23745;SDS011;12053;48.878;9.632;2024-02-28T01:54:20;48.70;;;27.88;;
23745;SDS011;12053;48.878;9.632;2024-02-28T01:56:47;52.35;;;28.83;;
23745;SDS011;12053;48.878;9.632;2024-02-28T01:59:14;46.33;;;26.88;;
23745;SDS011;12053;48.878;9.632;2024-02-28T02:01:42;50.35;;;28.73;;
23745;SDS011;12053;48.878;9.632;2024-02-28T02:04:09;45.13;;;26.80;;
23745;SDS011;12053;48.878;9.632;2024-02-28T02:06:37;49.28;;;27.45;;
23745;SDS011;12053;48.878;9.632;2024-02-28T02:09:06;50.97;;;28.00;;
23745;SDS011;12053;48.878;9.632;2024-02-28T02:11:33;47.25;;;28.15;;
23745;SDS011;12053;48.878;9.632;2024-02-28T02:14:01;52.88;;;27.60;;
23745;SDS011;12053;48.878;9.632;2024-02-28T02:16:28;47.88;;;27.50;;
23745;SDS011;12053;48.878;9.632;2024-02-28T02:18:56;48.97;;;27.10;;
23745;SDS011;12053;48.878;9.632;2024-02-28T02:21:26;52.50;;;29.13;;
23745;SDS011;12053;48.878;9.632;2024-02-28T02:23:53;52.05;;;27.95;;
23745;SDS011;12053;48.878;9.632;2024-02-28T02:26:20;54.17;;;29.33;;
23745;SDS011;12053;48.878;9.632;2024-02-28T02:28:47;47.45;;;26.60;;
23745;SDS011;12053;48.878;9.632;2024-02-28T02:31:15;51.05;;;28.05;;
23745;SDS011;12053;48.878;9.632;2024-02-28T02:33:42;49.30;;;27.95;;
23745;SDS011;12053;48.878;9.632;2024-02-28T02:36:09;46.85;;;28.02;;
23745;SDS011;12053;48.878;9.632;2024-02-28T02:38:36;50.33;;;28.50;;
23745;SDS011;12053;48.878;9.632;2024-02-28T02:41:04;49.33;;;28.35;;
23745;SDS011;12053;48.878;9.632;2024-02-28T02:43:31;47.28;;;26.77;;
23745;SDS011;12053;48.878;9.632;2024-02-28T02:45:58;49.00;;;27.60;;
23745;SDS011;12053;48.878;9.632;2024-02-28T02:48:26;43.85;;;26.40;;
23745;SDS011;12053;48.878;9.632;2024-02-28T02:50:53;50.83;;;27.83;;
23745;SDS011;12053;48.878;9.632;2024-02-28T02:53:20;53.05;;;27.92;;
23745;SDS011;12053;48.878;9.632;2024-02-28T02:55:47;49.40;;;27.77;;
23745;SDS011;12053;48.878;9.632;2024-02-28T02:58:15;49.47;;;26.92;;
23745;SDS011;12053;48.878;9.632;2024-02-28T03:00:42;45.85;;;26.58;;
23745;SDS011;12053;48.878;9.632;2024-02-28T03:03:09;46.25;;;27.67;;
23745;SDS011;12053;48.878;9.632;2024-02-28T03:05:37;46.42;;;26.77;;
23745;SDS011;12053;48.878;9.632;2024-02-28T03:08:04;49.05;;;27.80;;
23745;SDS011;12053;48.878;9.632;2024-02-28T03:10:31;47.22;;;27.73;;
23745;SDS011;12053;48.878;9.632;2024-02-28T03:12:59;51.53;;;28.42;;
23745;SDS011;12053;48.878;9.632;2024-02-28T03:15:27;49.03;;;28.75;;
23745;SDS011;12053;48.878;9.632;2024-02-28T03:17:54;49.75;;;28.13;;
23745;SDS011;12053;48.878;9.632;2024-02-28T03:20:22;52.75;;;28.33;;
23745;SDS011;12053;48.878;9.632;2024-02-28T03:22:50;51.95;;;27.48;;
23745;SDS011;12053;48.878;9.632;2024-02-28T03:25:17;53.40;;;28.33;;
23745;SDS011;12053;48.878;9.632;2024-02-28T03:27:44;49.13;;;29.15;;
23745;SDS011;12053;48.878;9.632;2024-02-28T03:30:12;48.53;;;26.67;;
23745;SDS011;12053;48.878;9.632;2024-02-28T03:32:39;48.20;;;26.15;;
23745;SDS011;12053;48.878;9.632;2024-02-28T03:35:06;45.83;;;26.48;;
23745;SDS011;12053;48.878;9.632;2024-02-28T03:37:35;48.65;;;27.70;;
23745;SDS011;12053;48.878;9.632;2024-02-28T03:40:02;51.03;;;27.33;;
23745;SDS011;12053;48.878;9.632;2024-02-28T03:42:30;48.17;;;27.52;;
23745;SDS011;12053;48.878;9.632;2024-02-28T03:44:57;46.70;;;25.75;;
23745;SDS011;12053;48.878;9.632;2024-02-28T03:47:24;51.90;;;27.08;;
23745;SDS011;12053;48.878;9.632;2024-02-28T03:49:52;48.47;;;27.80;;
23745;SDS011;12053;48.878;9.632;2024-02-28T03:52:20;51.42;;;28.23;;
23745;SDS011;12053;48.878;9.632;2024-02-28T03:54:48;50.58;;;28.45;;
23745;SDS011;12053;48.878;9.632;2024-02-28T03:57:15;55.42;;;28.23;;
23745;SDS011;12053;48.878;9.632;2024-02-28T03:59:42;54.05;;;28.38;;
23745;SDS011;12053;48.878;9.632;2024-02-28T04:02:10;49.83;;;28.38;;
23745;SDS011;12053;48.878;9.632;2024-02-28T04:04:37;50.53;;;28.33;;
23745;SDS011;12053;48.878;9.632;2024-02-28T04:07:04;417.98;;;117.38;;
23745;SDS011;12053;48.878;9.632;2024-02-28T04:09:32;114.18;;;44.65;;
23745;SDS011;12053;48.878;9.632;2024-02-28T04:11:59;55.85;;;30.05;;
23745;SDS011;12053;48.878;9.632;2024-02-28T04:14:26;53.65;;;29.80;;
23745;SDS011;12053;48.878;9.632;2024-02-28T04:16:53;50.13;;;26.48;;
23745;SDS011;12053;48.878;9.632;2024-02-28T04:19:21;55.10;;;29.48;;
23745;SDS011;12053;48.878;9.632;2024-02-28T04:21:48;53.40;;;28.48;;
23745;SDS011;12053;48.878;9.632;2024-02-28T04:24:15;52.58;;;28.27;;
23745;SDS011;12053;48.878;9.632;2024-02-28T04:26:43;51.75;;;28.50;;
23745;SDS011;12053;48.878;9.632;2024-02-28T04:29:10;52.63;;;27.15;;
23745;SDS011;12053;48.878;9.632;2024-02-28T04:31:40;54.05;;;29.83;;
23745;SDS011;12053;48.878;9.632;2024-02-28T04:34:08;51.80;;;27.85;;
23745;SDS011;12053;48.878;9.632;2024-02-28T04:36:35;46.70;;;26.95;;
23745;SDS011;12053;48.878;9.632;2024-02-28T04:39:03;54.80;;;29.10;;
23745;SDS011;12053;48.878;9.632;2024-02-28T04:41:32;50.53;;;28.08;;
23745;SDS011;12053;48.878;9.632;2024-02-28T04:44:00;59.45;;;30.33;;
23745;SDS011;12053;48.878;9.632;2024-02-28T04:46:27;57.78;;;29.27;;
23745;SDS011;12053;48.878;9.632;2024-02-28T04:48:55;52.80;;;28.75;;
23745;SDS011;12053;48.878;9.632;2024-02-28T04:51:22;55.25;;;28.38;;
23745;SDS011;12053;48.878;9.632;2024-02-28T04:53:49;59.42;;;29.30;;
23745;SDS011;12053;48.878;9.632;2024-02-28T04:56:17;55.75;;;28.67;;
23745;SDS011;12053;48.878;9.632;2024-02-28T04:58:44;60.05;;;29.90;;
23745;SDS011;12053;48.878;9.632;2024-02-28T05:01:12;63.85;;;30.58;;
23745;SDS011;12053;48.878;9.632;2024-02-28T05:03:40;63.05;;;30.63;;
23745;SDS011;12053;48.878;9.632;2024-02-28T05:06:07;65.05;;;30.77;;
23745;SDS011;12053;48.878;9.632;2024-02-28T05:08:38;60.65;;;30.48;;
23745;SDS011;12053;48.878;9.632;2024-02-28T05:11:05;63.83;;;30.35;;
23745;SDS011;12053;48.878;9.632;2024-02-28T05:13:34;58.33;;;29.67;;
23745;SDS011;12053;48.878;9.632;2024-02-28T05:16:01;58.45;;;28.92;;
23745;SDS011;12053;48.878;9.632;2024-02-28T05:18:29;52.90;;;27.63;;
23745;SDS011;12053;48.878;9.632;2024-02-28T05:20:56;52.40;;;27.10;;
23745;SDS011;12053;48.878;9.632;2024-02-28T05:23:24;47.33;;;25.10;;
23745;SDS011;12053;48.878;9.632;2024-02-28T05:25:52;48.20;;;26.80;;
23745;SDS011;12053;48.878;9.632;2024-02-28T05:28:19;48.50;;;25.70;;
23745;SDS011;12053;48.878;9.632;2024-02-28T05:30:46;52.95;;;26.63;;
23745;SDS011;12053;48.878;9.632;2024-02-28T05:33:16;50.33;;;26.77;;
23745;SDS011;12053;48.878;9.632;2024-02-28T05:35:44;60.45;;;30.13;;
23745;SDS011;12053;48.878;9.632;2024-02-28T05:38:11;49.97;;;27.67;;
23745;SDS011;12053;48.878;9.632;2024-02-28T05:40:41;54.72;;;27.08;;
23745;SDS011;12053;48.878;9.632;2024-02-28T05:43:08;51.55;;;26.23;;
23745;SDS011;12053;48.878;9.632;2024-02-28T05:45:35;53.15;;;28.48;;
23745;SDS011;12053;48.878;9.632;2024-02-28T05:48:03;50.05;;;26.67;;
23745;SDS011;12053;48.878;9.632;2024-02-28T05:50:30;49.33;;;27.40;;
23745;SDS011;12053;48.878;9.632;2024-02-28T05:52:59;53.60;;;27.08;;
23745;SDS011;12053;48.878;9.632;2024-02-28T05:55:26;52.63;;;26.20;;
23745;SDS011;12053;48.878;9.632;2024-02-28T05:57:54;47.45;;;25.52;;
23745;SDS011;12053;48.878;9.632;2024-02-28T06:00:23;50.15;;;26.15;;
23745;SDS011;12053;48.878;9.632;2024-02-28T06:02:50;52.75;;;27.10;;
23745;SDS011;12053;48.878;9.632;2024-02-28T06:05:18;52.53;;;27.58;;
23745;SDS011;12053;48.878;9.632;2024-02-28T06:07:45;47.90;;;26.85;;
23745;SDS011;12053;48.878;9.632;2024-02-28T06:10:12;53.75;;;27.02;;
23745;SDS011;12053;48.878;9.632;2024-02-28T06:12:40;52.28;;;28.25;;
23745;SDS011;12053;48.878;9.632;2024-02-28T06:15:07;56.55;;;28.63;;
23745;SDS011;12053;48.878;9.632;2024-02-28T06:17:35;55.10;;;27.88;;
23745;SDS011;12053;48.878;9.632;2024-02-28T06:20:02;48.05;;;26.35;;
23745;SDS011;12053;48.878;9.632;2024-02-28T06:22:29;56.67;;;28.65;;
23745;SDS011;12053;48.878;9.632;2024-02-28T06:24:57;50.45;;;26.63;;
23745;SDS011;12053;48.878;9.632;2024-02-28T06:27:24;52.92;;;27.27;;
23745;SDS011;12053;48.878;9.632;2024-02-28T06:29:53;45.15;;;25.67;;
23745;SDS011;12053;48.878;9.632;2024-02-28T06:32:22;48.17;;;26.83;;
23745;SDS011;12053;48.878;9.632;2024-02-28T06:34:50;51.40;;;27.05;;
23745;SDS011;12053;48.878;9.632;2024-02-28T06:37:17;45.30;;;25.60;;
23745;SDS011;12053;48.878;9.632;2024-02-28T06:39:45;48.55;;;26.83;;
23745;SDS011;12053;48.878;9.632;2024-02-28T06:42:12;53.92;;;27.90;;
23745;SDS011;12053;48.878;9.632;2024-02-28T06:44:39;55.10;;;27.50;;
23745;SDS011;12053;48.878;9.632;2024-02-28T06:47:06;54.75;;;28.42;;
23745;SDS011;12053;48.878;9.632;2024-02-28T06:49:35;59.13;;;28.77;;
23745;SDS011;12053;48.878;9.632;2024-02-28T06:52:02;54.75;;;27.13;;
23745;SDS011;12053;48.878;9.632;2024-02-28T06:54:30;53.75;;;26.20;;
23745;SDS011;12053;48.878;9.632;2024-02-28T06:56:58;53.33;;;28.17;;
23745;SDS011;12053;48.878;9.632;2024-02-28T06:59:25;51.53;;;25.77;;
23745;SDS011;12053;48.878;9.632;2024-02-28T07:01:52;51.63;;;27.83;;
23745;SDS011;12053;48.878;9.632;2024-02-28T07:04:20;54.65;;;27.65;;
23745;SDS011;12053;48.878;9.632;2024-02-28T07:06:47;45.53;;;24.65;;
23745;SDS011;12053;48.878;9.632;2024-02-28T07:09:15;48.53;;;24.20;;
23745;SDS011;12053;48.878;9.632;2024-02-28T07:11:42;53.28;;;28.05;;
23745;SDS011;12053;48.878;9.632;2024-02-28T07:14:10;54.10;;;28.08;;
23745;SDS011;12053;48.878;9.632;2024-02-28T07:16:40;51.45;;;26.65;;
23745;SDS011;12053;48.878;9.632;2024-02-28T07:19:08;54.15;;;26.75;;
23745;SDS011;12053;48.878;9.632;2024-02-28T07:21:35;57.75;;;29.02;;
23745;SDS011;12053;48.878;9.632;2024-02-28T07:24:03;58.53;;;28.08;;
23745;SDS011;12053;48.878;9.632;2024-02-28T07:26:32;58.83;;;28.25;;
23745;SDS011;12053;48.878;9.632;2024-02-28T07:28:59;57.92;;;28.52;;
23745;SDS011;12053;48.878;9.632;2024-02-28T07:31:27;240.95;;;74.53;;
23745;SDS011;12053;48.878;9.632;2024-02-28T07:33:54;51.55;;;26.48;;
23745;SDS011;12053;48.878;9.632;2024-02-28T07:36:21;71.88;;;37.83;;
23745;SDS011;12053;48.878;9.632;2024-02-28T07:38:49;62.50;;;33.38;;
23745;SDS011;12053;48.878;9.632;2024-02-28T07:41:16;50.03;;;26.25;;
23745;SDS011;12053;48.878;9.632;2024-02-28T07:43:43;49.53;;;24.23;;
23745;SDS011;12053;48.878;9.632;2024-02-28T07:46:11;50.20;;;25.00;;
23745;SDS011;12053;48.878;9.632;2024-02-28T07:48:38;50.45;;;26.25;;
23745;SDS011;12053;48.878;9.632;2024-02-28T07:51:09;49.00;;;25.58;;
23745;SDS011;12053;48.878;9.632;2024-02-28T07:53:37;49.20;;;25.17;;
23745;SDS011;12053;48.878;9.632;2024-02-28T07:56:05;57.15;;;26.83;;
23745;SDS011;12053;48.878;9.632;2024-02-28T07:58:32;48.72;;;25.50;;
23745;SDS011;12053;48.878;9.632;2024-02-28T08:00:59;52.17;;;27.30;;
23745;SDS011;12053;48.878;9.632;2024-02-28T08:03:27;53.65;;;27.33;;
23745;SDS011;12053;48.878;9.632;2024-02-28T08:05:54;57.70;;;28.98;;
23745;SDS011;12053;48.878;9.632;2024-02-28T08:08:21;55.38;;;26.77;;
23745;SDS011;12053;48.878;9.632;2024-02-28T08:10:50;55.03;;;27.75;;
23745;SDS011;12053;48.878;9.632;2024-02-28T08:13:19;54.55;;;27.15;;
23745;SDS011;12053;48.878;9.632;2024-02-28T08:15:46;50.00;;;26.25;;
23745;SDS011;12053;48.878;9.632;2024-02-28T08:18:14;56.63;;;26.63;;
23745;SDS011;12053;48.878;9.632;2024-02-28T08:20:41;51.92;;;24.70;;
23745;SDS011;12053;48.878;9.632;2024-02-28T08:23:09;54.30;;;27.02;;
23745;SDS011;12053;48.878;9.632;2024-02-28T08:25:36;52.03;;;25.45;;
23745;SDS011;12053;48.878;9.632;2024-02-28T08:28:04;51.30;;;26.42;;
23745;SDS011;12053;48.878;9.632;2024-02-28T08:30:32;50.70;;;25.60;;
23745;SDS011;12053;48.878;9.632;2024-02-28T08:33:00;50.33;;;24.70;;
23745;SDS011;12053;48.878;9.632;2024-02-28T08:35:28;56.83;;;26.95;;
23745;SDS011;12053;48.878;9.632;2024-02-28T08:37:55;53.03;;;26.88;;
23745;SDS011;12053;48.878;9.632;2024-02-28T08:40:22;50.92;;;27.13;;
23745;SDS011;12053;48.878;9.632;2024-02-28T08:42:50;51.70;;;26.58;;
23745;SDS011;12053;48.878;9.632;2024-02-28T08:45:19;52.50;;;27.15;;
23745;SDS011;12053;48.878;9.632;2024-02-28T08:47:47;57.13;;;27.00;;
23745;SDS011;12053;48.878;9.632;2024-02-28T08:50:14;50.25;;;24.10;;
23745;SDS011;12053;48.878;9.632;2024-02-28T08:52:42;46.22;;;23.42;;
23745;SDS011;12053;48.878;9.632;2024-02-28T08:55:09;50.85;;;25.35;;
23745;SDS011;12053;48.878;9.632;2024-02-28T08:57:36;56.53;;;24.40;;
23745;SDS011;12053;48.878;9.632;2024-02-28T09:00:04;40.25;;;23.25;;
23745;SDS011;12053;48.878;9.632;2024-02-28T09:02:35;45.45;;;22.48;;
23745;SDS011;12053;48.878;9.632;2024-02-28T09:05:03;46.88;;;24.05;;
23745;SDS011;12053;48.878;9.632;2024-02-28T09:07:31;45.03;;;23.42;;
23745;SDS011;12053;48.878;9.632;2024-02-28T09:09:58;45.70;;;24.17;;
23745;SDS011;12053;48.878;9.632;2024-02-28T09:12:25;53.05;;;25.23;;
23745;SDS011;12053;48.878;9.632;2024-02-28T09:14:53;47.22;;;23.88;;
23745;SDS011;12053;48.878;9.632;2024-02-28T09:17:24;47.05;;;25.08;;
23745;SDS011;12053;48.878;9.632;2024-02-28T09:19:52;46.95;;;27.55;;
23745;SDS011;12053;48.878;9.632;2024-02-28T09:22:20;44.17;;;23.25;;
23745;SDS011;12053;48.878;9.632;2024-02-28T09:24:47;37.70;;;21.00;;
23745;SDS011;12053;48.878;9.632;2024-02-28T09:27:15;37.30;;;19.52;;
23745;SDS011;12053;48.878;9.632;2024-02-28T09:29:44;34.75;;;18.83;;
23745;SDS011;12053;48.878;9.632;2024-02-28T09:32:11;35.47;;;20.23;;
23745;SDS011;12053;48.878;9.632;2024-02-28T09:34:41;30.63;;;17.77;;
23745;SDS011;12053;48.878;9.632;2024-02-28T09:37:08;31.20;;;17.67;;
23745;SDS011;12053;48.878;9.632;2024-02-28T09:39:37;27.98;;;16.60;;
23745;SDS011;12053;48.878;9.632;2024-02-28T09:42:06;28.67;;;17.27;;
23745;SDS011;12053;48.878;9.632;2024-02-28T09:44:34;28.98;;;17.52;;
23745;SDS011;12053;48.878;9.632;2024-02-28T09:47:03;28.45;;;16.02;;
23745;SDS011;12053;48.878;9.632;2024-02-28T09:49:31;29.42;;;16.48;;
23745;SDS011;12053;48.878;9.632;2024-02-28T09:51:59;26.15;;;14.88;;
23745;SDS011;12053;48.878;9.632;2024-02-28T09:54:26;27.17;;;16.08;;
23745;SDS011;12053;48.878;9.632;2024-02-28T09:56:53;24.95;;;15.25;;
23745;SDS011;12053;48.878;9.632;2024-02-28T09:59:23;25.10;;;15.48;;
23745;SDS011;12053;48.878;9.632;2024-02-28T10:02:04;36.63;;;19.25;;
23745;SDS011;12053;48.878;9.632;2024-02-28T10:04:33;27.50;;;16.85;;
23745;SDS011;12053;48.878;9.632;2024-02-28T10:07:09;27.67;;;16.63;;
23745;SDS011;12053;48.878;9.632;2024-02-28T10:09:40;25.10;;;15.68;;
23745;SDS011;12053;48.878;9.632;2024-02-28T10:12:07;26.38;;;15.30;;
23745;SDS011;12053;48.878;9.632;2024-02-28T10:14:34;23.23;;;15.05;;
23745;SDS011;12053;48.878;9.632;2024-02-28T10:17:02;23.75;;;13.65;;
23745;SDS011;12053;48.878;9.632;2024-02-28T10:19:29;21.67;;;13.20;;
23745;SDS011;12053;48.878;9.632;2024-02-28T10:21:56;21.73;;;13.63;;
23745;SDS011;12053;48.878;9.632;2024-02-28T10:24:24;24.42;;;14.18;;
23745;SDS011;12053;48.878;9.632;2024-02-28T10:26:51;22.75;;;13.20;;
23745;SDS011;12053;48.878;9.632;2024-02-28T10:29:22;22.00;;;14.10;;
23745;SDS011;12053;48.878;9.632;2024-02-28T10:31:57;20.58;;;12.70;;
23745;SDS011;12053;48.878;9.632;2024-02-28T10:34:25;20.30;;;12.30;;
23745;SDS011;12053;48.878;9.632;2024-02-28T10:36:52;21.63;;;13.55;;
23745;SDS011;12053;48.878;9.632;2024-02-28T10:39:20;22.55;;;13.57;;
23745;SDS011;12053;48.878;9.632;2024-02-28T10:41:49;20.85;;;12.90;;
23745;SDS011;12053;48.878;9.632;2024-02-28T10:44:17;21.58;;;13.27;;
23745;SDS011;12053;48.878;9.632;2024-02-28T10:46:45;20.88;;;13.02;;
23745;SDS011;12053;48.878;9.632;2024-02-28T10:49:16;18.50;;;12.77;;
23745;SDS011;12053;48.878;9.632;2024-02-28T10:51:45;19.20;;;12.25;;
23745;SDS011;12053;48.878;9.632;2024-02-28T10:54:14;19.38;;;12.23;;
23745;SDS011;12053;48.878;9.632;2024-02-28T10:56:42;20.52;;;12.82;;
23745;SDS011;12053;48.878;9.632;2024-02-28T10:59:11;18.52;;;12.18;;
23745;SDS011;12053;48.878;9.632;2024-02-28T11:01:42;21.63;;;13.60;;
23745;SDS011;12053;48.878;9.632;2024-02-28T11:04:17;23.85;;;15.02;;
23745;SDS011;12053;48.878;9.632;2024-02-28T11:06:55;24.35;;;14.52;;
23745;SDS011;12053;48.878;9.632;2024-02-28T11:09:23;22.95;;;14.60;;
23745;SDS011;12053;48.878;9.632;2024-02-28T11:11:52;24.88;;;14.70;;
23745;SDS011;12053;48.878;9.632;2024-02-28T11:14:20;23.50;;;14.02;;
23745;SDS011;12053;48.878;9.632;2024-02-28T11:16:59;21.40;;;13.15;;
23745;SDS011;12053;48.878;9.632;2024-02-28T11:19:27;23.98;;;14.38;;
23745;SDS011;12053;48.878;9.632;2024-02-28T11:21:56;23.42;;;14.23;;
23745;SDS011;12053;48.878;9.632;2024-02-28T11:24:27;21.50;;;13.20;;
23745;SDS011;12053;48.878;9.632;2024-02-28T11:26:55;21.92;;;13.88;;
23745;SDS011;12053;48.878;9.632;2024-02-28T11:29:27;22.35;;;13.57;;
23745;SDS011;12053;48.878;9.632;2024-02-28T11:31:57;23.92;;;14.90;;
23745;SDS011;12053;48.878;9.632;2024-02-28T11:34:25;22.77;;;14.88;;
23745;SDS011;12053;48.878;9.632;2024-02-28T11:36:52;26.65;;;15.98;;
23745;SDS011;12053;48.878;9.632;2024-02-28T11:39:22;23.50;;;14.82;;
23745;SDS011;12053;48.878;9.632;2024-02-28T11:41:52;22.35;;;13.73;;
23745;SDS011;12053;48.878;9.632;2024-02-28T11:44:19;20.92;;;13.60;;
23745;SDS011;12053;48.878;9.632;2024-02-28T11:46:49;22.25;;;14.50;;
23745;SDS011;12053;48.878;9.632;2024-02-28T11:49:17;23.33;;;13.82;;
23745;SDS011;12053;48.878;9.632;2024-02-28T11:51:45;23.50;;;13.68;;
23745;SDS011;12053;48.878;9.632;2024-02-28T11:54:13;20.13;;;12.93;;
23745;SDS011;12053;48.878;9.632;2024-02-28T11:56:40;22.52;;;12.48;;
23745;SDS011;12053;48.878;9.632;2024-02-28T11:59:08;20.45;;;13.45;;
23745;SDS011;12053;48.878;9.632;2024-02-28T12:01:37;19.70;;;12.98;;
23745;SDS011;12053;48.878;9.632;2024-02-28T12:04:05;17.92;;;12.20;;
23745;SDS011;12053;48.878;9.632;2024-02-28T12:06:34;19.55;;;12.48;;
23745;SDS011;12053;48.878;9.632;2024-02-28T12:09:03;22.55;;;13.23;;
23745;SDS011;12053;48.878;9.632;2024-02-28T12:11:31;20.08;;;13.27;;
23745;SDS011;12053;48.878;9.632;2024-02-28T12:13:58;19.42;;;13.02;;
23745;SDS011;12053;48.878;9.632;2024-02-28T12:16:27;22.98;;;14.00;;
23745;SDS011;12053;48.878;9.632;2024-02-28T12:18:54;19.83;;;13.60;;
23745;SDS011;12053;48.878;9.632;2024-02-28T12:21:22;20.27;;;13.45;;
23745;SDS011;12053;48.878;9.632;2024-02-28T12:23:49;21.90;;;13.35;;
23745;SDS011;12053;48.878;9.632;2024-02-28T12:26:17;21.35;;;14.23;;
23745;SDS011;12053;48.878;9.632;2024-02-28T12:28:45;20.25;;;12.88;;
23745;SDS011;12053;48.878;9.632;2024-02-28T12:31:13;20.98;;;12.93;;
23745;SDS011;12053;48.878;9.632;2024-02-28T12:33:41;21.35;;;14.27;;
23745;SDS011;12053;48.878;9.632;2024-02-28T12:36:08;21.20;;;13.85;;
23745;SDS011;12053;48.878;9.632;2024-02-28T12:38:36;23.48;;;13.77;;
23745;SDS011;12053;48.878;9.632;2024-02-28T12:41:03;21.50;;;14.60;;
23745;SDS011;12053;48.878;9.632;2024-02-28T12:43:31;21.35;;;14.35;;
23745;SDS011;12053;48.878;9.632;2024-02-28T12:45:59;21.25;;;14.20;;
23745;SDS011;12053;48.878;9.632;2024-02-28T12:48:26;22.73;;;14.10;;
23745;SDS011;12053;48.878;9.632;2024-02-28T12:50:54;22.50;;;14.02;;
23745;SDS011;12053;48.878;9.632;2024-02-28T12:53:21;23.45;;;14.02;;
23745;SDS011;12053;48.878;9.632;2024-02-28T12:55:48;22.42;;;13.77;;
23745;SDS011;12053;48.878;9.632;2024-02-28T12:58:16;21.90;;;13.80;;
23745;SDS011;12053;48.878;9.632;2024-02-28T13:00:43;22.10;;;14.98;;
23745;SDS011;12053;48.878;9.632;2024-02-28T13:03:11;22.75;;;14.75;;
23745;SDS011;12053;48.878;9.632;2024-02-28T13:05:39;25.70;;;14.75;;
23745;SDS011;12053;48.878;9.632;2024-02-28T13:08:07;25.95;;;15.15;;
23745;SDS011;12053;48.878;9.632;2024-02-28T13:10:34;21.02;;;15.30;;
23745;SDS011;12053;48.878;9.632;2024-02-28T13:13:05;23.20;;;14.05;;
23745;SDS011;12053;48.878;9.632;2024-02-28T13:15:33;23.23;;;14.45;;
23745;SDS011;12053;48.878;9.632;2024-02-28T13:18:00;23.80;;;15.88;;
23745;SDS011;12053;48.878;9.632;2024-02-28T13:23:00;27.52;;;14.45;;
23745;SDS011;12053;48.878;9.632;2024-02-28T13:25:29;49.33;;;20.08;;
23745;SDS011;12053;48.878;9.632;2024-02-28T13:27:57;24.27;;;13.75;;
23745;SDS011;12053;48.878;9.632;2024-02-28T13:30:24;26.17;;;15.25;;
23745;SDS011;12053;48.878;9.632;2024-02-28T13:32:52;23.60;;;14.50;;
23745;SDS011;12053;48.878;9.632;2024-02-28T13:35:19;28.73;;;15.95;;
23745;SDS011;12053;48.878;9.632;2024-02-28T13:37:47;23.60;;;14.70;;
23745;SDS011;12053;48.878;9.632;2024-02-28T13:40:14;24.50;;;16.08;;
23745;SDS011;12053;48.878;9.632;2024-02-28T13:42:41;24.92;;;16.20;;
23745;SDS011;12053;48.878;9.632;2024-02-28T13:45:09;25.25;;;16.17;;
23745;SDS011;12053;48.878;9.632;2024-02-28T13:47:38;24.88;;;15.85;;
23745;SDS011;12053;48.878;9.632;2024-02-28T13:50:06;22.13;;;14.30;;
23745;SDS011;12053;48.878;9.632;2024-02-28T13:52:34;25.33;;;15.05;;
23745;SDS011;12053;48.878;9.632;2024-02-28T13:55:01;22.58;;;14.10;;
23745;SDS011;12053;48.878;9.632;2024-02-28T13:57:29;22.13;;;13.43;;
23745;SDS011;12053;48.878;9.632;2024-02-28T13:59:56;22.13;;;14.35;;
23745;SDS011;12053;48.878;9.632;2024-02-28T14:02:23;20.75;;;14.00;;
23745;SDS011;12053;48.878;9.632;2024-02-28T14:04:54;24.38;;;14.60;;
23745;SDS011;12053;48.878;9.632;2024-02-28T14:07:21;23.00;;;14.77;;
23745;SDS011;12053;48.878;9.632;2024-02-28T14:09:49;23.92;;;14.35;;
23745;SDS011;12053;48.878;9.632;2024-02-28T14:12:16;23.05;;;14.43;;
23745;SDS011;12053;48.878;9.632;2024-02-28T14:14:43;21.63;;;14.27;;
23745;SDS011;12053;48.878;9.632;2024-02-28T14:17:10;21.85;;;14.20;;
23745;SDS011;12053;48.878;9.632;2024-02-28T14:19:37;22.98;;;14.35;;
23745;SDS011;12053;48.878;9.632;2024-02-28T14:22:05;21.95;;;13.75;;
23745;SDS011;12053;48.878;9.632;2024-02-28T14:24:32;19.63;;;13.07;;
23745;SDS011;12053;48.878;9.632;2024-02-28T14:26:59;22.27;;;15.35;;